sensor_id;sensor_type;location;lat;lon;timestamp;temperature;humidity
10010;DHT22;5044;48.652;9.250;2023-11-21T08:17:16;7.50;99.90
10010;DHT22;5044;48.652;9.250;2023-11-21T08:19:46;7.50;99.90
10010;DHT22;5044;48.652;9.250;2023-11-21T08:22:15;7.60;99.90
10010;DHT22;5044;48.652;9.250;2023-11-21T08:25:01;7.60;99.90
10010;DHT22;5044;48.652;9.250;2023-11-21T08:27:48;7.70;99.90
10010;DHT22;5044;48.652;9.250;2023-11-21T08:30:23;7.70;99.90
10010;DHT22;5044;48.652;9.250;2023-11-21T08:33:09;7.70;99.90
10010;DHT22;5044;48.652;9.250;2023-11-21T08:36:08;7.80;99.90
10010;DHT22;5044;48.652;9.250;2023-11-21T08:42:35;7.90;99.90
10010;DHT22;5044;48.652;9.250;2023-11-21T08:45:46;8.10;99.90
10010;DHT22;5044;48.652;9.250;2023-11-21T08:48:38;7.90;99.90
10010;DHT22;5044;48.652;9.250;2023-11-21T08:51:10;7.70;99.90
10010;DHT22;5044;48.652;9.250;2023-11-21T08:53:49;7.90;99.90
10010;DHT22;5044;48.652;9.250;2023-11-21T08:59:53;7.90;99.90
10010;DHT22;5044;48.652;9.250;2023-11-21T09:02:26;8.00;99.90
10010;DHT22;5044;48.652;9.250;2023-11-21T09:04:59;8.00;99.90
10010;DHT22;5044;48.652;9.250;2023-11-21T09:07:39;8.00;99.90
10010;DHT22;5044;48.652;9.250;2023-11-21T09:10:14;8.00;99.90
10010;DHT22;5044;48.652;9.250;2023-11-21T09:12:46;8.00;99.90
10010;DHT22;5044;48.652;9.250;2023-11-21T12:34:55;8.60;99.90
10010;DHT22;5044;48.652;9.250;2023-11-21T12:37:28;8.70;99.90
10010;DHT22;5044;48.652;9.250;2023-11-21T12:39:58;8.80;99.90
10010;DHT22;5044;48.652;9.250;2023-11-21T12:42:30;8.70;99.90
10010;DHT22;5044;48.652;9.250;2023-11-21T12:45:21;8.90;99.90
10010;DHT22;5044;48.652;9.250;2023-11-21T12:47:58;8.90;99.90
10010;DHT22;5044;48.652;9.250;2023-11-21T12:53:43;8.90;99.90
10010;DHT22;5044;48.652;9.250;2023-11-21T12:56:21;9.00;99.90
10010;DHT22;5044;48.652;9.250;2023-11-21T12:58:56;9.10;99.90
10010;DHT22;5044;48.652;9.250;2023-11-21T13:02:13;9.10;99.90
10010;DHT22;5044;48.652;9.250;2023-11-21T13:04:55;9.00;99.90
10010;DHT22;5044;48.652;9.250;2023-11-21T13:07:50;9.00;99.90
10010;DHT22;5044;48.652;9.250;2023-11-21T13:10:44;9.10;99.90
10010;DHT22;5044;48.652;9.250;2023-11-21T13:13:34;8.90;99.90
10010;DHT22;5044;48.652;9.250;2023-11-21T13:16:41;8.70;99.90
10010;DHT22;5044;48.652;9.250;2023-11-21T13:19:18;8.80;99.90
10010;DHT22;5044;48.652;9.250;2023-11-21T13:21:47;8.90;99.90
10010;DHT22;5044;48.652;9.250;2023-11-21T13:24:18;8.90;99.90
10010;DHT22;5044;48.652;9.250;2023-11-21T13:26:55;9.00;99.90
10010;DHT22;5044;48.652;9.250;2023-11-21T13:29:26;9.00;99.90
10010;DHT22;5044;48.652;9.250;2023-11-21T13:31:58;9.00;99.90
10010;DHT22;5044;48.652;9.250;2023-11-21T13:34:26;8.90;99.90
10010;DHT22;5044;48.652;9.250;2023-11-21T13:36:53;8.80;99.90
10010;DHT22;5044;48.652;9.250;2023-11-21T13:39:27;8.80;99.90
10010;DHT22;5044;48.652;9.250;2023-11-21T13:42:08;8.90;99.90
10010;DHT22;5044;48.652;9.250;2023-11-21T13:44:39;8.80;99.90
10010;DHT22;5044;48.652;9.250;2023-11-21T13:47:10;8.70;99.90
10010;DHT22;5044;48.652;9.250;2023-11-21T13:49:41;9.00;99.90
10010;DHT22;5044;48.652;9.250;2023-11-21T13:52:26;8.80;99.90
10010;DHT22;5044;48.652;9.250;2023-11-21T13:55:18;8.90;99.90
10010;DHT22;5044;48.652;9.250;2023-11-21T13:57:58;8.80;99.90
10010;DHT22;5044;48.652;9.250;2023-11-21T14:01:01;8.60;99.90
10010;DHT22;5044;48.652;9.250;2023-11-21T14:03:31;8.80;99.90
10010;DHT22;5044;48.652;9.250;2023-11-21T14:06:08;8.70;99.90
10010;DHT22;5044;48.652;9.250;2023-11-21T14:08:49;9.00;99.90
10010;DHT22;5044;48.652;9.250;2023-11-21T14:11:19;8.80;99.90
10010;DHT22;5044;48.652;9.250;2023-11-21T14:13:49;8.90;99.90
10010;DHT22;5044;48.652;9.250;2023-11-21T14:16:21;8.80;99.90
10010;DHT22;5044;48.652;9.250;2023-11-21T14:18:54;8.90;99.90
10010;DHT22;5044;48.652;9.250;2023-11-21T14:21:36;8.60;99.90
10010;DHT22;5044;48.652;9.250;2023-11-21T14:27:33;8.30;99.90
10010;DHT22;5044;48.652;9.250;2023-11-21T14:30:24;8.30;99.90
10010;DHT22;5044;48.652;9.250;2023-11-21T14:32:58;8.20;99.90
10010;DHT22;5044;48.652;9.250;2023-11-21T14:35:34;8.20;99.90
10010;DHT22;5044;48.652;9.250;2023-11-21T14:38:14;8.10;99.90
10010;DHT22;5044;48.652;9.250;2023-11-21T14:40:49;8.00;99.90
10010;DHT22;5044;48.652;9.250;2023-11-21T14:43:16;8.00;99.90
10010;DHT22;5044;48.652;9.250;2023-11-21T14:45:54;8.10;99.90
10010;DHT22;5044;48.652;9.250;2023-11-21T14:48:31;7.90;99.90
10010;DHT22;5044;48.652;9.250;2023-11-21T14:51:10;8.00;99.90
10010;DHT22;5044;48.652;9.250;2023-11-21T14:53:56;8.00;99.90
10010;DHT22;5044;48.652;9.250;2023-11-21T14:56:34;8.40;99.90
10010;DHT22;5044;48.652;9.250;2023-11-21T14:59:02;7.90;99.90
10010;DHT22;5044;48.652;9.250;2023-11-21T15:01:47;7.80;99.90
10010;DHT22;5044;48.652;9.250;2023-11-21T15:04:25;7.80;99.90
10010;DHT22;5044;48.652;9.250;2023-11-21T15:07:19;7.80;99.90
10010;DHT22;5044;48.652;9.250;2023-11-21T15:09:53;7.80;99.90
10010;DHT22;5044;48.652;9.250;2023-11-21T15:12:20;7.70;99.90
10010;DHT22;5044;48.652;9.250;2023-11-21T15:14:54;7.70;99.90
10010;DHT22;5044;48.652;9.250;2023-11-21T15:17:44;7.70;99.90
10010;DHT22;5044;48.652;9.250;2023-11-21T15:20:13;7.70;99.90
10010;DHT22;5044;48.652;9.250;2023-11-21T15:22:54;7.60;99.90
10010;DHT22;5044;48.652;9.250;2023-11-21T15:25:38;7.50;99.90
10010;DHT22;5044;48.652;9.250;2023-11-21T15:28:28;7.60;99.90
10010;DHT22;5044;48.652;9.250;2023-11-21T15:31:10;7.60;99.90
10010;DHT22;5044;48.652;9.250;2023-11-21T15:33:44;7.20;99.90
10010;DHT22;5044;48.652;9.250;2023-11-21T15:36:13;7.60;99.90
10010;DHT22;5044;48.652;9.250;2023-11-21T15:38:48;7.60;99.90
10010;DHT22;5044;48.652;9.250;2023-11-21T15:41:45;7.70;99.90
10010;DHT22;5044;48.652;9.250;2023-11-21T15:44:25;7.60;99.90
10010;DHT22;5044;48.652;9.250;2023-11-21T15:46:57;7.60;99.90
10010;DHT22;5044;48.652;9.250;2023-11-21T15:49:31;7.60;99.90
10010;DHT22;5044;48.652;9.250;2023-11-21T15:52:20;7.30;99.90
10010;DHT22;5044;48.652;9.250;2023-11-21T15:55:04;7.60;99.90
10010;DHT22;5044;48.652;9.250;2023-11-21T15:57:48;7.60;99.90
10010;DHT22;5044;48.652;9.250;2023-11-21T16:00:17;7.60;99.90
10010;DHT22;5044;48.652;9.250;2023-11-21T16:02:48;7.50;99.90
10010;DHT22;5044;48.652;9.250;2023-11-21T16:05:28;7.70;99.90
10010;DHT22;5044;48.652;9.250;2023-11-21T16:07:59;7.60;99.90
10010;DHT22;5044;48.652;9.250;2023-11-21T16:10:40;7.50;99.90
10010;DHT22;5044;48.652;9.250;2023-11-21T16:13:07;7.40;99.90
10010;DHT22;5044;48.652;9.250;2023-11-21T16:15:39;7.40;99.90
10010;DHT22;5044;48.652;9.250;2023-11-21T16:18:18;7.40;99.90
10010;DHT22;5044;48.652;9.250;2023-11-21T16:20:55;7.40;99.90
10010;DHT22;5044;48.652;9.250;2023-11-21T16:23:22;7.40;99.90
10010;DHT22;5044;48.652;9.250;2023-11-21T16:25:55;7.40;99.90
10010;DHT22;5044;48.652;9.250;2023-11-21T16:28:26;7.40;99.90
10010;DHT22;5044;48.652;9.250;2023-11-21T16:30:55;7.40;99.90
10010;DHT22;5044;48.652;9.250;2023-11-21T16:33:25;7.40;99.90
10010;DHT22;5044;48.652;9.250;2023-11-21T16:36:13;7.40;99.90
10010;DHT22;5044;48.652;9.250;2023-11-21T16:38:52;7.80;99.90
10010;DHT22;5044;48.652;9.250;2023-11-21T16:41:42;7.40;99.90
10010;DHT22;5044;48.652;9.250;2023-11-21T16:44:13;7.30;99.90
10010;DHT22;5044;48.652;9.250;2023-11-21T16:46:44;7.40;99.90
10010;DHT22;5044;48.652;9.250;2023-11-21T16:49:15;7.30;99.90
10010;DHT22;5044;48.652;9.250;2023-11-21T16:51:47;7.40;99.90
10010;DHT22;5044;48.652;9.250;2023-11-21T16:54:31;7.40;99.90
10010;DHT22;5044;48.652;9.250;2023-11-21T16:57:00;7.40;99.90
10010;DHT22;5044;48.652;9.250;2023-11-21T16:59:45;7.40;99.90
10010;DHT22;5044;48.652;9.250;2023-11-21T17:02:18;7.40;99.90
10010;DHT22;5044;48.652;9.250;2023-11-21T17:04:49;7.50;99.90
10010;DHT22;5044;48.652;9.250;2023-11-21T17:07:31;7.30;99.90
10010;DHT22;5044;48.652;9.250;2023-11-21T17:10:11;7.30;99.90
10010;DHT22;5044;48.652;9.250;2023-11-21T17:12:43;7.90;99.90
10010;DHT22;5044;48.652;9.250;2023-11-21T17:15:17;7.40;99.90
10010;DHT22;5044;48.652;9.250;2023-11-21T17:17:45;7.30;99.90
10010;DHT22;5044;48.652;9.250;2023-11-21T17:20:13;7.30;99.90
10010;DHT22;5044;48.652;9.250;2023-11-21T17:22:42;7.20;99.90
10010;DHT22;5044;48.652;9.250;2023-11-21T17:25:09;7.20;99.90
10010;DHT22;5044;48.652;9.250;2023-11-21T17:27:36;7.20;99.90
10010;DHT22;5044;48.652;9.250;2023-11-21T17:30:03;7.20;99.90
10010;DHT22;5044;48.652;9.250;2023-11-21T17:32:31;7.10;99.90
10010;DHT22;5044;48.652;9.250;2023-11-21T17:34:58;7.10;99.90
10010;DHT22;5044;48.652;9.250;2023-11-21T17:37:25;7.00;99.90
10010;DHT22;5044;48.652;9.250;2023-11-21T17:39:53;7.10;99.90
10010;DHT22;5044;48.652;9.250;2023-11-21T17:42:22;6.90;99.90
10010;DHT22;5044;48.652;9.250;2023-11-21T17:44:49;6.80;99.90
10010;DHT22;5044;48.652;9.250;2023-11-21T17:47:19;6.90;99.90
10010;DHT22;5044;48.652;9.250;2023-11-21T17:49:50;6.80;99.90
10010;DHT22;5044;48.652;9.250;2023-11-21T17:52:19;6.80;99.90
10010;DHT22;5044;48.652;9.250;2023-11-21T17:54:47;6.70;99.90
10010;DHT22;5044;48.652;9.250;2023-11-21T17:57:17;6.60;99.90
10010;DHT22;5044;48.652;9.250;2023-11-21T17:59:44;6.60;99.90
10010;DHT22;5044;48.652;9.250;2023-11-21T18:02:13;6.60;99.90
10010;DHT22;5044;48.652;9.250;2023-11-21T18:04:39;6.60;99.90
10010;DHT22;5044;48.652;9.250;2023-11-21T18:07:06;6.50;99.90
10010;DHT22;5044;48.652;9.250;2023-11-21T18:09:33;6.50;99.90
10010;DHT22;5044;48.652;9.250;2023-11-21T18:12:00;6.60;99.90
10010;DHT22;5044;48.652;9.250;2023-11-21T18:14:29;6.60;99.90
10010;DHT22;5044;48.652;9.250;2023-11-21T18:16:56;6.50;99.90
10010;DHT22;5044;48.652;9.250;2023-11-21T18:19:22;6.50;99.90
10010;DHT22;5044;48.652;9.250;2023-11-21T18:21:49;6.50;99.90
10010;DHT22;5044;48.652;9.250;2023-11-21T18:24:16;6.50;99.90
10010;DHT22;5044;48.652;9.250;2023-11-21T18:26:43;6.50;99.90
10010;DHT22;5044;48.652;9.250;2023-11-21T18:29:10;6.50;99.90
10010;DHT22;5044;48.652;9.250;2023-11-21T18:31:40;6.50;99.90
10010;DHT22;5044;48.652;9.250;2023-11-21T18:34:07;6.50;99.90
10010;DHT22;5044;48.652;9.250;2023-11-21T18:36:34;6.50;99.90
10010;DHT22;5044;48.652;9.250;2023-11-21T18:39:01;6.50;99.90
10010;DHT22;5044;48.652;9.250;2023-11-21T18:41:27;6.50;99.90
10010;DHT22;5044;48.652;9.250;2023-11-21T18:43:57;6.60;99.90
10010;DHT22;5044;48.652;9.250;2023-11-21T18:46:23;6.60;99.90
10010;DHT22;5044;48.652;9.250;2023-11-21T18:48:52;6.60;99.90
10010;DHT22;5044;48.652;9.250;2023-11-21T18:51:19;6.50;99.90
10010;DHT22;5044;48.652;9.250;2023-11-21T18:53:46;6.60;99.90
10010;DHT22;5044;48.652;9.250;2023-11-21T18:56:19;6.60;99.90
10010;DHT22;5044;48.652;9.250;2023-11-21T18:58:49;6.70;99.90
10010;DHT22;5044;48.652;9.250;2023-11-21T19:01:29;6.60;99.90
10010;DHT22;5044;48.652;9.250;2023-11-21T19:04:14;6.70;99.90
10010;DHT22;5044;48.652;9.250;2023-11-21T19:06:46;6.70;99.90
10010;DHT22;5044;48.652;9.250;2023-11-21T19:09:30;6.70;99.90
10010;DHT22;5044;48.652;9.250;2023-11-21T19:12:23;6.70;99.90
10010;DHT22;5044;48.652;9.250;2023-11-21T19:15:01;6.70;99.90
10010;DHT22;5044;48.652;9.250;2023-11-21T19:17:41;6.80;99.90
10010;DHT22;5044;48.652;9.250;2023-11-21T19:20:19;6.80;99.90
10010;DHT22;5044;48.652;9.250;2023-11-21T19:22:51;7.10;99.90
10010;DHT22;5044;48.652;9.250;2023-11-21T19:25:25;6.90;99.90
10010;DHT22;5044;48.652;9.250;2023-11-21T19:27:56;7.30;99.90
10010;DHT22;5044;48.652;9.250;2023-11-21T19:30:23;7.10;99.90
10010;DHT22;5044;48.652;9.250;2023-11-21T19:32:51;6.90;99.90
10010;DHT22;5044;48.652;9.250;2023-11-21T19:35:28;6.90;99.90
10010;DHT22;5044;48.652;9.250;2023-11-21T19:38:05;6.90;99.90
10010;DHT22;5044;48.652;9.250;2023-11-21T19:40:35;6.90;99.90
10010;DHT22;5044;48.652;9.250;2023-11-21T19:43:06;6.90;99.90
10010;DHT22;5044;48.652;9.250;2023-11-21T19:45:35;6.90;99.90
10010;DHT22;5044;48.652;9.250;2023-11-21T19:48:04;6.90;99.90
10010;DHT22;5044;48.652;9.250;2023-11-21T19:50:38;6.90;99.90
10010;DHT22;5044;48.652;9.250;2023-11-21T19:53:19;6.90;99.90
10010;DHT22;5044;48.652;9.250;2023-11-21T19:56:00;6.80;99.90
10010;DHT22;5044;48.652;9.250;2023-11-21T19:58:30;7.00;99.90
10010;DHT22;5044;48.652;9.250;2023-11-21T20:01:06;6.90;99.90
10010;DHT22;5044;48.652;9.250;2023-11-21T20:03:41;6.80;99.90
10010;DHT22;5044;48.652;9.250;2023-11-21T20:06:11;6.90;99.90
10010;DHT22;5044;48.652;9.250;2023-11-21T20:08:39;7.20;99.90
10010;DHT22;5044;48.652;9.250;2023-11-21T20:11:08;6.80;99.90
10010;DHT22;5044;48.652;9.250;2023-11-21T20:13:38;6.80;99.90
10010;DHT22;5044;48.652;9.250;2023-11-21T20:16:25;6.90;99.90
10010;DHT22;5044;48.652;9.250;2023-11-21T20:18:54;6.90;99.90
10010;DHT22;5044;48.652;9.250;2023-11-21T20:21:35;6.90;99.90
10010;DHT22;5044;48.652;9.250;2023-11-21T20:24:06;6.90;99.90
10010;DHT22;5044;48.652;9.250;2023-11-21T20:26:37;6.90;99.90
10010;DHT22;5044;48.652;9.250;2023-11-21T20:29:07;6.90;99.90
10010;DHT22;5044;48.652;9.250;2023-11-21T20:31:34;7.00;99.90
10010;DHT22;5044;48.652;9.250;2023-11-21T20:34:01;7.00;99.90
10010;DHT22;5044;48.652;9.250;2023-11-21T20:36:31;6.90;99.90
10010;DHT22;5044;48.652;9.250;2023-11-21T20:38:58;7.20;99.90
10010;DHT22;5044;48.652;9.250;2023-11-21T20:41:25;6.90;99.90
10010;DHT22;5044;48.652;9.250;2023-11-21T20:43:53;6.90;99.90
10010;DHT22;5044;48.652;9.250;2023-11-21T20:46:21;6.90;99.90
10010;DHT22;5044;48.652;9.250;2023-11-21T20:48:51;6.90;99.90
10010;DHT22;5044;48.652;9.250;2023-11-21T20:51:20;6.90;99.90
10010;DHT22;5044;48.652;9.250;2023-11-21T20:53:50;6.90;99.90
10010;DHT22;5044;48.652;9.250;2023-11-21T20:56:17;6.80;99.90
10010;DHT22;5044;48.652;9.250;2023-11-21T20:58:45;6.80;99.90
10010;DHT22;5044;48.652;9.250;2023-11-21T21:01:12;6.80;99.90
10010;DHT22;5044;48.652;9.250;2023-11-21T21:03:39;7.20;99.90
10010;DHT22;5044;48.652;9.250;2023-11-21T21:06:06;6.70;99.90
10010;DHT22;5044;48.652;9.250;2023-11-21T21:08:33;6.60;99.90
10010;DHT22;5044;48.652;9.250;2023-11-21T21:11:01;6.70;99.90
10010;DHT22;5044;48.652;9.250;2023-11-21T21:13:28;6.60;99.90
10010;DHT22;5044;48.652;9.250;2023-11-21T21:15:55;6.60;99.90
10010;DHT22;5044;48.652;9.250;2023-11-21T21:18:21;6.80;99.90
10010;DHT22;5044;48.652;9.250;2023-11-21T21:20:52;6.70;99.90
10010;DHT22;5044;48.652;9.250;2023-11-21T21:23:20;6.60;99.90
10010;DHT22;5044;48.652;9.250;2023-11-21T21:26:00;6.70;99.90
10010;DHT22;5044;48.652;9.250;2023-11-21T21:28:33;6.60;99.90
10010;DHT22;5044;48.652;9.250;2023-11-21T21:31:00;6.60;99.90
10010;DHT22;5044;48.652;9.250;2023-11-21T21:33:27;6.60;99.90
10010;DHT22;5044;48.652;9.250;2023-11-21T21:35:55;6.70;99.90
